Time;durP1;ratioP1;P1;durP2;ratioP2;P2;SDS_P1;SDS_P2;PMS_P1;PMS_P2;Temp;Humidity;BMP_temperature;BMP_pressure;BME280_temperature;BME280_humidity;BME280_pressure;Samples;Min_cycle;Max_cycle;Signal;HPM_P1;HPM_P2
2022/12/14 00:00:46;;;;;;;;;;;18.30;41.10;;;;;;7363107;19;19918;-55
2022/12/14 00:03:12;;;;;;;;;;;18.20;41.10;;;;;;7365011;19;19929;-53
2022/12/14 00:05:37;;;;;;;;;;;18.20;41.10;;;;;;7366629;19;19915;-57
2022/12/14 00:08:03;;;;;;;;;;;18.20;41.10;;;;;;7354859;19;19927;-57
2022/12/14 00:10:30;;;;;;;;;;;18.10;41.10;;;;;;7376049;19;20256;-57
2022/12/14 00:12:56;;;;;;;;;;;18.10;41.30;;;;;;7363094;19;19934;-59
2022/12/14 00:15:21;;;;;;;;;;;18.10;41.10;;;;;;7343403;19;21389;-57
2022/12/14 00:17:47;;;;;;;;;;;18.10;41.20;;;;;;7359095;19;20024;-56
2022/12/14 00:20:12;;;;;;;;;;;18.10;41.20;;;;;;7368451;19;20366;-58
2022/12/14 00:22:38;;;;;;;;;;;18.00;41.30;;;;;;7365403;19;20308;-58
2022/12/14 00:25:03;;;;;;;;;;;18.00;41.30;;;;;;7365915;19;20543;-56
2022/12/14 00:27:29;;;;;;;;;;;18.10;41.30;;;;;;7361602;19;19915;-55
2022/12/14 00:29:54;;;;;;;;;;;18.10;41.30;;;;;;7356734;19;19971;-57
2022/12/14 00:32:20;;;;;;;;;;;18.10;41.30;;;;;;7356765;19;19918;-57
2022/12/14 00:34:45;;;;;;;;;;;18.10;41.30;;;;;;7364593;19;19944;-56
2022/12/14 00:37:11;;;;;;;;;;;18.10;41.20;;;;;;7360816;19;19922;-57
2022/12/14 00:39:36;;;;;;;;;;;18.20;41.20;;;;;;7359103;19;20263;-57
2022/12/14 00:42:01;;;;;;;;;;;18.20;41.20;;;;;;7356319;19;19918;-55
2022/12/14 00:44:27;;;;;;;;;;;18.20;41.10;;;;;;7369287;19;20889;-57
2022/12/14 00:46:52;;;;;;;;;;;18.30;41.10;;;;;;7354219;19;20680;-58
2022/12/14 00:49:18;;;;;;;;;;;18.30;41.10;;;;;;7330871;19;20326;-55
2022/12/14 00:51:43;;;;;;;;;;;18.30;41.00;;;;;;7345913;19;20259;-58
2022/12/14 00:54:09;;;;;;;;;;;18.40;41.00;;;;;;7345523;19;19935;-55
2022/12/14 00:56:34;;;;;;;;;;;18.30;40.90;;;;;;7345117;19;19918;-56
2022/12/14 00:59:00;;;;;;;;;;;18.40;41.00;;;;;;7367878;19;19926;-56
2022/12/14 01:01:25;;;;;;;;;;;18.40;40.90;;;;;;7355851;19;19934;-57
2022/12/14 01:04:15;;;;;;;;;;;18.40;40.80;;;;;;7359864;19;19914;-58
2022/12/14 01:06:36;;;;;;;;;;;18.40;40.80;;;;;;7360046;19;20339;-54
2022/12/14 01:09:01;;;;;;;;;;;18.40;40.90;;;;;;7354760;19;19922;-56
2022/12/14 01:11:27;;;;;;;;;;;18.40;40.80;;;;;;7358350;19;20360;-57
2022/12/14 01:13:54;;;;;;;;;;;18.50;40.80;;;;;;7360275;19;19922;-49
2022/12/14 01:16:19;;;;;;;;;;;18.50;40.80;;;;;;7354622;19;20244;-51
2022/12/14 01:18:44;;;;;;;;;;;18.50;40.80;;;;;;7364260;19;19914;-53
2022/12/14 01:21:14;;;;;;;;;;;18.50;40.70;;;;;;7365381;19;19934;-55
2022/12/14 01:23:40;;;;;;;;;;;18.50;40.70;;;;;;7357080;19;19950;-52
2022/12/14 01:26:06;;;;;;;;;;;18.50;40.70;;;;;;7369447;19;19999;-49
2022/12/14 01:28:33;;;;;;;;;;;18.50;40.60;;;;;;7368092;19;19923;-45
2022/12/14 01:31:03;;;;;;;;;;;18.50;40.50;;;;;;7366467;19;19935;-53
2022/12/14 01:33:28;;;;;;;;;;;18.50;40.50;;;;;;7379068;19;20421;-51
2022/12/14 01:35:54;;;;;;;;;;;18.50;40.70;;;;;;7367248;19;19922;-47
2022/12/14 01:38:19;;;;;;;;;;;18.50;40.60;;;;;;7376013;19;20348;-52
2022/12/14 01:40:45;;;;;;;;;;;18.50;40.60;;;;;;7377702;19;20395;-48
2022/12/14 01:43:14;;;;;;;;;;;18.50;40.60;;;;;;7369479;19;20709;-51
2022/12/14 01:45:41;;;;;;;;;;;18.40;40.50;;;;;;7365669;19;19914;-52
2022/12/14 01:48:08;;;;;;;;;;;18.40;40.60;;;;;;7367622;19;19934;-49
2022/12/14 01:50:36;;;;;;;;;;;18.40;40.70;;;;;;7362668;19;19927;-46
2022/12/14 01:53:05;;;;;;;;;;;18.30;40.60;;;;;;7375172;19;19918;-46
2022/12/14 01:55:35;;;;;;;;;;;18.30;40.80;;;;;;7377972;19;20623;-50
2022/12/14 01:58:14;;;;;;;;;;;18.30;40.70;;;;;;7373788;19;19914;-50
2022/12/14 02:00:40;;;;;;;;;;;18.20;40.60;;;;;;7369308;19;20375;-47
2022/12/14 02:03:08;;;;;;;;;;;18.20;40.90;;;;;;7382204;19;19922;-50
2022/12/14 02:05:34;;;;;;;;;;;18.10;40.80;;;;;;7358234;19;19919;-47
2022/12/14 02:08:00;;;;;;;;;;;18.10;40.80;;;;;;7369981;19;19942;-50
2022/12/14 02:10:26;;;;;;;;;;;18.10;40.80;;;;;;7368574;19;19911;-50
2022/12/14 02:12:57;;;;;;;;;;;18.10;40.80;;;;;;7370223;19;19934;-49
2022/12/14 02:15:23;;;;;;;;;;;18.10;41.00;;;;;;7366307;19;19923;-51
2022/12/14 02:17:48;;;;;;;;;;;18.00;41.00;;;;;;7379422;19;20337;-50
2022/12/14 02:20:15;;;;;;;;;;;18.10;41.00;;;;;;7371117;19;19915;-51
2022/12/14 02:23:02;;;;;;;;;;;18.10;41.00;;;;;;7374835;19;19926;-49
2022/12/14 02:25:39;;;;;;;;;;;18.10;41.00;;;;;;7368142;19;19927;-51
2022/12/14 02:28:17;;;;;;;;;;;18.10;41.00;;;;;;7369742;19;19990;-46
2022/12/14 02:30:48;;;;;;;;;;;18.10;40.90;;;;;;7373547;19;19947;-53
2022/12/14 02:33:28;;;;;;;;;;;18.20;41.00;;;;;;7377432;19;19991;-51
2022/12/14 02:35:58;;;;;;;;;;;18.20;41.50;;;;;;7374778;19;19926;-46
2022/12/14 02:38:23;;;;;;;;;;;18.20;40.80;;;;;;7367327;19;19919;-46
2022/12/14 02:40:49;;;;;;;;;;;18.30;40.90;;;;;;7370286;19;20554;-50
2022/12/14 02:43:20;;;;;;;;;;;18.30;40.80;;;;;;7369758;19;19919;-50
2022/12/14 02:45:51;;;;;;;;;;;18.30;40.70;;;;;;7372371;19;19957;-50
2022/12/14 02:48:20;;;;;;;;;;;18.30;40.70;;;;;;7372890;19;19918;-49
2022/12/14 02:51:03;;;;;;;;;;;18.30;40.70;;;;;;7376746;19;19934;-47
2022/12/14 02:53:41;;;;;;;;;;;18.30;40.80;;;;;;7371591;19;19926;-45
2022/12/14 02:56:08;;;;;;;;;;;18.20;40.70;;;;;;7373297;19;19922;-46
2022/12/14 02:58:37;;;;;;;;;;;18.20;40.70;;;;;;7363173;19;20332;-47
2022/12/14 03:01:02;;;;;;;;;;;18.20;40.70;;;;;;7360620;19;20473;-47
2022/12/14 03:03:28;;;;;;;;;;;18.10;40.70;;;;;;7375572;19;19994;-48
2022/12/14 03:06:03;;;;;;;;;;;18.20;40.80;;;;;;7373711;19;19971;-48
2022/12/14 03:08:33;;;;;;;;;;;18.10;40.80;;;;;;7376247;19;19935;-45
2022/12/14 03:11:04;;;;;;;;;;;18.10;40.80;;;;;;7372664;19;19922;-47
2022/12/14 03:13:33;;;;;;;;;;;18.00;40.80;;;;;;7369686;19;19919;-49
2022/12/14 03:16:12;;;;;;;;;;;18.10;41.00;;;;;;7374961;19;19915;-49
2022/12/14 03:18:44;;;;;;;;;;;18.00;40.90;;;;;;7368839;19;19933;-45
2022/12/14 03:21:11;;;;;;;;;;;18.00;40.80;;;;;;7374772;19;19939;-47
2022/12/14 03:23:38;;;;;;;;;;;18.00;41.00;;;;;;7364744;19;19942;-50
2022/12/14 03:26:03;;;;;;;;;;;17.90;40.90;;;;;;7366627;19;20501;-50
2022/12/14 03:28:35;;;;;;;;;;;18.00;41.00;;;;;;7371325;19;19923;-48
2022/12/14 03:31:05;;;;;;;;;;;18.00;41.00;;;;;;7369172;19;19914;-50
2022/12/14 03:33:32;;;;;;;;;;;18.00;40.90;;;;;;7375526;19;19915;-49
2022/12/14 03:36:16;;;;;;;;;;;18.00;41.00;;;;;;7373097;19;20336;-49
2022/12/14 03:38:43;;;;;;;;;;;18.00;40.80;;;;;;7381090;19;19919;-49
2022/12/14 03:41:27;;;;;;;;;;;18.00;40.90;;;;;;7371518;19;20332;-47
2022/12/14 03:44:10;;;;;;;;;;;18.10;40.80;;;;;;7376444;19;20280;-48
2022/12/14 03:46:36;;;;;;;;;;;18.10;40.80;;;;;;7368373;19;20039;-46
2022/12/14 03:49:15;;;;;;;;;;;18.20;40.70;;;;;;7377667;19;19970;-52
2022/12/14 03:51:51;;;;;;;;;;;18.20;40.70;;;;;;7370721;19;19945;-51
2022/12/14 03:54:34;;;;;;;;;;;18.20;40.60;;;;;;7373412;19;19943;-50
2022/12/14 03:57:06;;;;;;;;;;;18.20;40.60;;;;;;7380664;19;20678;-47
2022/12/14 03:59:44;;;;;;;;;;;18.30;40.60;;;;;;7364847;19;19938;-50
2022/12/14 04:02:14;;;;;;;;;;;18.30;40.60;;;;;;7371008;19;19923;-53
2022/12/14 04:04:42;;;;;;;;;;;18.30;40.60;;;;;;7357301;19;19923;-49
2022/12/14 04:07:11;;;;;;;;;;;18.20;40.50;;;;;;7377696;19;19921;-55
2022/12/14 04:09:37;;;;;;;;;;;18.20;40.50;;;;;;7373312;19;19927;-48
2022/12/14 04:20:51;;;;;;;;;;;18.10;40.60;;;;;;7364288;19;19943;-48
2022/12/14 04:26:03;;;;;;;;;;;18.10;40.70;;;;;;7350875;19;21620;-52
2022/12/14 04:26:08;;;;;;;;;;;18.10;40.60;;;;;;7365148;19;19925;-46
2022/12/14 04:31:31;;;;;;;;;;;18.20;40.50;;;;;;7381042;19;19936;-46
2022/12/14 04:33:58;;;;;;;;;;;18.20;40.50;;;;;;7373132;19;19926;-49
2022/12/14 04:36:27;;;;;;;;;;;18.20;40.50;;;;;;7369348;19;19939;-55
2022/12/14 04:38:56;;;;;;;;;;;18.20;40.50;;;;;;7368498;19;19918;-48
2022/12/14 04:41:23;;;;;;;;;;;18.20;40.40;;;;;;7361443;19;19923;-55
2022/12/14 04:43:49;;;;;;;;;;;18.30;40.50;;;;;;7360909;19;20933;-55
2022/12/14 04:46:16;;;;;;;;;;;18.30;40.40;;;;;;7365492;19;20302;-53
2022/12/14 04:48:46;;;;;;;;;;;18.30;40.30;;;;;;7371540;19;19929;-46
2022/12/14 04:51:20;;;;;;;;;;;18.30;40.20;;;;;;7374281;19;20570;-48
2022/12/14 04:53:47;;;;;;;;;;;18.30;40.30;;;;;;7363361;19;19923;-47
2022/12/14 04:56:19;;;;;;;;;;;18.30;40.20;;;;;;7349705;19;20347;-54
2022/12/14 04:58:44;;;;;;;;;;;18.30;40.30;;;;;;7350768;19;20490;-49
2022/12/14 05:01:33;;;;;;;;;;;18.40;40.30;;;;;;7380826;19;19922;-50
2022/12/14 05:04:14;;;;;;;;;;;18.40;40.30;;;;;;7374288;19;19935;-50
2022/12/14 05:06:51;;;;;;;;;;;18.40;40.30;;;;;;7364317;19;19942;-50
2022/12/14 05:09:21;;;;;;;;;;;18.30;40.20;;;;;;7366457;19;19918;-54
2022/12/14 05:11:55;;;;;;;;;;;18.30;40.30;;;;;;7374370;19;19937;-50
2022/12/14 05:14:27;;;;;;;;;;;18.30;40.40;;;;;;7380690;19;19919;-55
2022/12/14 05:16:52;;;;;;;;;;;18.30;40.30;;;;;;7362410;19;19919;-52
2022/12/14 05:19:18;;;;;;;;;;;18.30;40.40;;;;;;7371607;19;20467;-49
2022/12/14 05:21:46;;;;;;;;;;;18.30;40.40;;;;;;7373461;19;19932;-49
2022/12/14 05:24:11;;;;;;;;;;;18.30;40.30;;;;;;7366357;19;20597;-48
2022/12/14 05:26:37;;;;;;;;;;;18.30;40.60;;;;;;7367649;19;19922;-48
2022/12/14 05:29:02;;;;;;;;;;;18.20;40.50;;;;;;7353279;19;19911;-54
2022/12/14 05:31:28;;;;;;;;;;;18.20;40.60;;;;;;7330335;19;19914;-48
2022/12/14 05:33:53;;;;;;;;;;;18.20;40.60;;;;;;7353380;19;19923;-50
2022/12/14 05:36:19;;;;;;;;;;;18.10;40.50;;;;;;7363778;19;19938;-58
2022/12/14 05:38:45;;;;;;;;;;;18.10;40.50;;;;;;7365424;19;19923;-54
2022/12/14 05:41:10;;;;;;;;;;;18.20;40.50;;;;;;7350194;19;19926;-54
2022/12/14 05:43:35;;;;;;;;;;;18.10;40.50;;;;;;7360895;19;20434;-56
2022/12/14 05:46:02;;;;;;;;;;;18.10;40.30;;;;;;7357940;19;21736;-59
2022/12/14 05:48:28;;;;;;;;;;;18.10;40.50;;;;;;7346770;19;20131;-53
2022/12/14 05:50:54;;;;;;;;;;;18.10;40.60;;;;;;7339342;19;20557;-57
2022/12/14 05:53:19;;;;;;;;;;;18.10;40.60;;;;;;7337281;19;26186;-56
2022/12/14 05:55:49;;;;;;;;;;;18.20;40.60;;;;;;7352541;19;19919;-57
2022/12/14 05:58:14;;;;;;;;;;;18.20;40.60;;;;;;7353358;19;19926;-57
2022/12/14 06:00:40;;;;;;;;;;;18.20;40.50;;;;;;7363744;19;19940;-55
2022/12/14 06:03:05;;;;;;;;;;;18.20;40.70;;;;;;7372863;19;19948;-57
2022/12/14 06:05:31;;;;;;;;;;;18.30;41.00;;;;;;7349365;19;20344;-56
2022/12/14 06:07:56;;;;;;;;;;;18.30;40.80;;;;;;7365423;19;20983;-58
2022/12/14 06:10:22;;;;;;;;;;;18.30;40.80;;;;;;7381225;19;19919;-58
2022/12/14 06:12:49;;;;;;;;;;;18.30;40.60;;;;;;7348919;19;19915;-54
2022/12/14 06:15:15;;;;;;;;;;;18.40;40.70;;;;;;7351751;19;20847;-55
2022/12/14 06:17:44;;;;;;;;;;;18.40;40.60;;;;;;7371752;19;19922;-54
2022/12/14 06:20:10;;;;;;;;;;;18.40;40.50;;;;;;7369506;19;19924;-55
2022/12/14 06:22:35;;;;;;;;;;;18.50;40.50;;;;;;7358778;19;19919;-57
2022/12/14 06:25:01;;;;;;;;;;;18.50;40.30;;;;;;7356953;19;19926;-56
2022/12/14 06:27:26;;;;;;;;;;;18.50;40.30;;;;;;7366741;19;19922;-55
2022/12/14 06:29:52;;;;;;;;;;;18.50;40.30;;;;;;7354931;19;20006;-59
2022/12/14 06:32:17;;;;;;;;;;;18.50;40.30;;;;;;7361716;19;19961;-59
2022/12/14 06:34:46;;;;;;;;;;;18.50;40.10;;;;;;7361615;19;19923;-64
2022/12/14 06:37:11;;;;;;;;;;;18.60;40.40;;;;;;7364987;19;20017;-60
2022/12/14 06:39:37;;;;;;;;;;;18.60;40.20;;;;;;7367391;19;20337;-64
2022/12/14 06:42:03;;;;;;;;;;;18.60;40.20;;;;;;7368831;19;19919;-61
2022/12/14 06:44:29;;;;;;;;;;;18.60;40.10;;;;;;7362097;19;19927;-60
2022/12/14 06:46:54;;;;;;;;;;;18.60;40.00;;;;;;7357449;19;19921;-64
2022/12/14 06:49:20;;;;;;;;;;;18.50;40.10;;;;;;7360456;19;19918;-62
2022/12/14 06:51:46;;;;;;;;;;;18.50;40.30;;;;;;7373593;19;19955;-62
2022/12/14 06:54:12;;;;;;;;;;;18.50;40.20;;;;;;7362430;19;19919;-64
2022/12/14 06:56:38;;;;;;;;;;;18.50;40.40;;;;;;7379590;19;19925;-64
2022/12/14 06:59:04;;;;;;;;;;;18.40;40.40;;;;;;7378439;19;19975;-63
2022/12/14 07:01:29;;;;;;;;;;;18.40;40.30;;;;;;7375438;19;19921;-61
2022/12/14 07:03:56;;;;;;;;;;;18.40;40.30;;;;;;7383611;19;19926;-64
2022/12/14 07:06:23;;;;;;;;;;;18.40;40.40;;;;;;7374915;19;19915;-61
2022/12/14 07:08:51;;;;;;;;;;;18.40;40.40;;;;;;7376474;19;19930;-60
2022/12/14 07:11:16;;;;;;;;;;;18.40;40.60;;;;;;7375546;19;19915;-63
2022/12/14 07:13:42;;;;;;;;;;;18.40;40.50;;;;;;7375808;19;19946;-62
2022/12/14 07:16:11;;;;;;;;;;;18.30;40.50;;;;;;7366134;19;19915;-63
2022/12/14 07:18:36;;;;;;;;;;;18.30;40.40;;;;;;7380234;19;19927;-63
2022/12/14 07:21:07;;;;;;;;;;;18.40;40.40;;;;;;7378655;19;19919;-64
2022/12/14 07:23:33;;;;;;;;;;;18.40;40.50;;;;;;7363337;19;19923;-63
2022/12/14 07:26:09;;;;;;;;;;;18.30;40.50;;;;;;7364927;19;20340;-61
2022/12/14 07:28:35;;;;;;;;;;;18.30;40.50;;;;;;7361729;19;19924;-59
2022/12/14 07:31:02;;;;;;;;;;;18.30;40.60;;;;;;7373146;19;20656;-60
2022/12/14 07:33:28;;;;;;;;;;;18.20;40.50;;;;;;7371224;19;19919;-63
2022/12/14 07:36:02;;;;;;;;;;;18.20;40.60;;;;;;7361904;19;19943;-60
2022/12/14 07:38:27;;;;;;;;;;;18.20;40.50;;;;;;7371879;19;19926;-65
2022/12/14 07:40:53;;;;;;;;;;;18.20;40.50;;;;;;7365129;19;19923;-61
2022/12/14 07:43:18;;;;;;;;;;;18.20;40.50;;;;;;7369398;19;20356;-61
2022/12/14 07:45:44;;;;;;;;;;;18.10;40.50;;;;;;7373256;19;20392;-63
2022/12/14 07:48:09;;;;;;;;;;;18.20;40.40;;;;;;7370478;19;19942;-59
2022/12/14 07:50:35;;;;;;;;;;;18.20;40.40;;;;;;7375704;19;20548;-62
2022/12/14 07:53:00;;;;;;;;;;;18.10;40.30;;;;;;7369536;19;20367;-64
2022/12/14 07:55:26;;;;;;;;;;;18.10;40.30;;;;;;7377398;19;19921;-62
2022/12/14 07:57:51;;;;;;;;;;;18.10;40.30;;;;;;7365263;19;20788;-64
2022/12/14 08:00:17;;;;;;;;;;;18.10;40.40;;;;;;7354519;19;19907;-63
2022/12/14 08:02:42;;;;;;;;;;;18.00;40.30;;;;;;7369867;19;20340;-64
2022/12/14 08:05:08;;;;;;;;;;;18.00;40.40;;;;;;7371843;19;19946;-63
2022/12/14 08:07:34;;;;;;;;;;;18.00;40.50;;;;;;7369919;19;19950;-64
2022/12/14 08:09:59;;;;;;;;;;;18.00;40.50;;;;;;7363884;19;20430;-60
2022/12/14 08:12:25;;;;;;;;;;;18.00;40.60;;;;;;7374782;19;19927;-61
2022/12/14 08:14:50;;;;;;;;;;;17.90;40.80;;;;;;7376994;19;19946;-61
2022/12/14 08:17:16;;;;;;;;;;;17.90;40.60;;;;;;7374039;19;20226;-55
2022/12/14 08:19:41;;;;;;;;;;;17.90;40.60;;;;;;7369856;19;20026;-57
2022/12/14 08:22:07;;;;;;;;;;;17.90;40.60;;;;;;7366247;19;19946;-63
2022/12/14 08:24:32;;;;;;;;;;;17.90;40.60;;;;;;7354103;19;19939;-59
2022/12/14 08:26:57;;;;;;;;;;;17.90;40.60;;;;;;7368040;19;19935;-61
2022/12/14 08:29:23;;;;;;;;;;;17.90;40.60;;;;;;7373399;19;19929;-63
2022/12/14 08:31:49;;;;;;;;;;;17.90;40.60;;;;;;7371272;19;19915;-63
2022/12/14 08:34:21;;;;;;;;;;;17.80;40.50;;;;;;7377461;19;19923;-64
2022/12/14 08:36:46;;;;;;;;;;;17.90;40.70;;;;;;7364819;19;19975;-64
2022/12/14 08:39:12;;;;;;;;;;;17.80;40.60;;;;;;7372326;19;19950;-61
2022/12/14 08:41:37;;;;;;;;;;;17.80;40.50;;;;;;7356872;19;20006;-62
2022/12/14 08:44:03;;;;;;;;;;;17.90;40.50;;;;;;7375549;19;19958;-62
2022/12/14 08:46:30;;;;;;;;;;;17.90;40.50;;;;;;7375840;19;19922;-63
2022/12/14 08:48:56;;;;;;;;;;;17.90;40.40;;;;;;7375657;19;19953;-63
2022/12/14 08:51:22;;;;;;;;;;;17.90;40.50;;;;;;7367795;19;19911;-63
2022/12/14 08:53:48;;;;;;;;;;;17.90;40.30;;;;;;7373436;19;19927;-63
2022/12/14 08:56:15;;;;;;;;;;;18.00;40.30;;;;;;7367593;19;20285;-64
2022/12/14 08:58:41;;;;;;;;;;;18.00;40.10;;;;;;7369500;19;19938;-59
2022/12/14 09:01:08;;;;;;;;;;;18.10;40.30;;;;;;7367926;19;19918;-65
2022/12/14 09:03:33;;;;;;;;;;;18.10;40.10;;;;;;7369261;19;19926;-63
2022/12/14 09:06:03;;;;;;;;;;;18.10;40.10;;;;;;7360825;19;19947;-61
2022/12/14 09:08:29;;;;;;;;;;;18.20;40.10;;;;;;7370558;19;20258;-62
2022/12/14 09:10:54;;;;;;;;;;;18.20;40.20;;;;;;7373801;19;19986;-62
2022/12/14 09:13:20;;;;;;;;;;;18.30;39.90;;;;;;7368020;19;19915;-61
2022/12/14 09:15:45;;;;;;;;;;;18.30;39.90;;;;;;7369983;19;19935;-59
2022/12/14 09:18:10;;;;;;;;;;;18.40;40.00;;;;;;7366121;19;19940;-62
2022/12/14 09:20:36;;;;;;;;;;;18.40;39.90;;;;;;7352823;19;19943;-64
2022/12/14 09:23:01;;;;;;;;;;;18.30;39.90;;;;;;7366434;19;19968;-62
2022/12/14 09:25:27;;;;;;;;;;;18.30;39.80;;;;;;7372569;19;19922;-64
2022/12/14 09:27:52;;;;;;;;;;;18.30;39.80;;;;;;7362079;19;20722;-63
2022/12/14 09:30:18;;;;;;;;;;;18.30;39.70;;;;;;7357648;19;19967;-63
2022/12/14 09:32:45;;;;;;;;;;;18.40;39.70;;;;;;7362160;19;19939;-64
2022/12/14 09:35:11;;;;;;;;;;;18.30;39.80;;;;;;7371269;19;19923;-60
2022/12/14 09:37:37;;;;;;;;;;;18.30;39.80;;;;;;7367014;19;20308;-62
2022/12/14 09:40:03;;;;;;;;;;;18.30;40.00;;;;;;7348518;19;19998;-59
2022/12/14 09:42:37;;;;;;;;;;;18.30;40.00;;;;;;7335775;19;19919;-60
2022/12/14 09:45:08;;;;;;;;;;;18.30;40.60;;;;;;7338800;19;19954;-57
2022/12/14 09:47:40;;;;;;;;;;;18.40;40.70;;;;;;7361502;19;19919;-63
2022/12/14 09:50:09;;;;;;;;;;;18.40;40.60;;;;;;7358850;19;19934;-61
2022/12/14 09:52:39;;;;;;;;;;;18.40;41.10;;;;;;7357777;19;19911;-59
2022/12/14 09:55:14;;;;;;;;;;;18.50;41.10;;;;;;7352018;19;19927;-61
2022/12/14 09:57:40;;;;;;;;;;;18.40;41.30;;;;;;7369872;19;19923;-64
2022/12/14 10:00:12;;;;;;;;;;;18.40;41.40;;;;;;7372538;19;19934;-62
2022/12/14 10:02:56;;;;;;;;;;;18.40;41.60;;;;;;7360255;19;19919;-58
2022/12/14 10:05:37;;;;;;;;;;;18.40;41.60;;;;;;7364526;19;19921;-63
2022/12/14 10:08:07;;;;;;;;;;;18.50;41.80;;;;;;7362456;19;19923;-59
2022/12/14 10:10:40;;;;;;;;;;;18.60;41.60;;;;;;7349401;19;20825;-60
2022/12/14 10:13:18;;;;;;;;;;;18.60;41.20;;;;;;7346948;19;19926;-60
2022/12/14 10:16:09;;;;;;;;;;;18.70;41.50;;;;;;7352509;19;19923;-62
2022/12/14 10:18:50;;;;;;;;;;;18.70;41.40;;;;;;7344260;19;19915;-62
2022/12/14 10:21:19;;;;;;;;;;;18.70;40.90;;;;;;7355043;19;19915;-64
2022/12/14 10:23:55;;;;;;;;;;;18.70;41.00;;;;;;7362895;19;19925;-62
2022/12/14 10:26:22;;;;;;;;;;;18.80;40.90;;;;;;7362308;19;19927;-61
2022/12/14 10:29:11;;;;;;;;;;;18.80;41.30;;;;;;7365273;19;19921;-63
2022/12/14 10:31:45;;;;;;;;;;;18.80;41.10;;;;;;7352187;19;19929;-61
2022/12/14 10:34:16;;;;;;;;;;;18.80;41.00;;;;;;7354232;19;19919;-61
2022/12/14 10:37:02;;;;;;;;;;;18.90;41.20;;;;;;7371781;19;19918;-59
2022/12/14 10:39:38;;;;;;;;;;;18.90;41.20;;;;;;7365681;19;19919;-64
2022/12/14 10:42:10;;;;;;;;;;;19.00;41.20;;;;;;7354274;19;19927;-64
2022/12/14 10:44:44;;;;;;;;;;;19.00;41.20;;;;;;7362815;19;19923;-63
2022/12/14 10:47:33;;;;;;;;;;;19.00;41.50;;;;;;7345709;19;19950;-57
2022/12/14 10:50:14;;;;;;;;;;;19.00;41.70;;;;;;7352579;19;19926;-57
2022/12/14 10:52:41;;;;;;;;;;;19.10;41.30;;;;;;7369238;19;19936;-61
2022/12/14 10:55:12;;;;;;;;;;;19.10;41.30;;;;;;7357229;19;19979;-60
2022/12/14 10:57:38;;;;;;;;;;;19.10;41.40;;;;;;7344585;19;20252;-63
2022/12/14 11:00:11;;;;;;;;;;;19.20;40.90;;;;;;7363757;19;19926;-61
2022/12/14 11:02:44;;;;;;;;;;;19.20;40.60;;;;;;7353821;19;19918;-64
2022/12/14 11:05:18;;;;;;;;;;;19.20;40.30;;;;;;7361997;19;19922;-62
2022/12/14 11:07:48;;;;;;;;;;;19.20;40.30;;;;;;7360700;19;20004;-57
2022/12/14 11:10:18;;;;;;;;;;;19.10;40.10;;;;;;7353953;19;19978;-61
2022/12/14 11:13:02;;;;;;;;;;;19.10;39.80;;;;;;7342239;19;19992;-56
2022/12/14 11:15:30;;;;;;;;;;;19.20;40.10;;;;;;7328318;19;19955;-60
2022/12/14 11:18:01;;;;;;;;;;;19.10;39.80;;;;;;7336491;19;19923;-60
2022/12/14 11:20:26;;;;;;;;;;;19.00;39.80;;;;;;7343771;19;19931;-57
2022/12/14 11:22:55;;;;;;;;;;;18.90;39.50;;;;;;7350021;19;20015;-58
2022/12/14 11:25:29;;;;;;;;;;;18.90;39.90;;;;;;7363504;19;20387;-59
2022/12/14 11:27:55;;;;;;;;;;;18.90;40.50;;;;;;7364416;19;19953;-59
2022/12/14 11:30:20;;;;;;;;;;;19.00;41.00;;;;;;7351737;19;19919;-58
2022/12/14 11:32:46;;;;;;;;;;;19.00;40.80;;;;;;7353965;19;20530;-57
2022/12/14 11:35:16;;;;;;;;;;;19.00;40.60;;;;;;7366892;19;19929;-61
2022/12/14 11:37:42;;;;;;;;;;;18.90;40.50;;;;;;7356201;19;19946;-60
2022/12/14 11:40:16;;;;;;;;;;;18.90;40.30;;;;;;7363031;19;19943;-60
2022/12/14 11:42:46;;;;;;;;;;;18.90;40.40;;;;;;7341568;19;19946;-59
2022/12/14 11:45:37;;;;;;;;;;;19.00;40.40;;;;;;7345356;19;20636;-59
2022/12/14 11:48:16;;;;;;;;;;;19.00;40.20;;;;;;7358600;19;19925;-56
2022/12/14 11:50:42;;;;;;;;;;;19.00;40.30;;;;;;7350689;19;20706;-61
2022/12/14 11:53:13;;;;;;;;;;;19.00;40.30;;;;;;7366153;19;19933;-60
2022/12/14 11:55:42;;;;;;;;;;;19.00;40.20;;;;;;7365117;19;20332;-61
2022/12/14 11:58:14;;;;;;;;;;;19.00;40.30;;;;;;7376396;19;19922;-61
2022/12/14 12:00:42;;;;;;;;;;;19.00;40.30;;;;;;7347487;19;19978;-53
2022/12/14 12:03:13;;;;;;;;;;;18.90;40.30;;;;;;7367890;19;20019;-61
2022/12/14 12:05:39;;;;;;;;;;;18.90;40.50;;;;;;7345926;19;20253;-61
2022/12/14 12:08:14;;;;;;;;;;;18.80;40.50;;;;;;7376695;19;19936;-60
2022/12/14 12:10:43;;;;;;;;;;;18.80;40.30;;;;;;7374208;19;19915;-57
2022/12/14 12:13:38;;;;;;;;;;;18.80;40.30;;;;;;7368351;19;20729;-60
2022/12/14 12:16:12;;;;;;;;;;;18.80;40.30;;;;;;7343046;19;21283;-60
2022/12/14 12:18:42;;;;;;;;;;;18.80;40.60;;;;;;7368624;19;19911;-61
2022/12/14 12:21:13;;;;;;;;;;;18.80;40.50;;;;;;7352376;19;19922;-61
2022/12/14 12:23:51;;;;;;;;;;;18.80;40.60;;;;;;7352587;19;22684;-60
2022/12/14 12:26:22;;;;;;;;;;;18.70;40.80;;;;;;7360238;19;19923;-60
2022/12/14 12:28:51;;;;;;;;;;;18.70;40.40;;;;;;7328247;19;19918;-59
2022/12/14 12:31:21;;;;;;;;;;;18.70;40.30;;;;;;7338333;19;19926;-60
2022/12/14 12:34:04;;;;;;;;;;;18.70;40.40;;;;;;7356075;19;19939;-60
2022/12/14 12:36:31;;;;;;;;;;;18.70;40.30;;;;;;7361867;19;19937;-60
2022/12/14 12:39:01;;;;;;;;;;;18.60;40.50;;;;;;7366931;19;20411;-57
2022/12/14 12:41:46;;;;;;;;;;;18.60;40.50;;;;;;7348185;19;20287;-60
2022/12/14 12:44:14;;;;;;;;;;;18.60;40.60;;;;;;7365280;19;20375;-60
2022/12/14 12:46:45;;;;;;;;;;;18.60;40.50;;;;;;7367546;19;20332;-55
2022/12/14 12:49:12;;;;;;;;;;;18.50;40.50;;;;;;7374223;19;19918;-50
2022/12/14 12:51:44;;;;;;;;;;;18.50;40.60;;;;;;7367912;19;19935;-55
2022/12/14 12:54:13;;;;;;;;;;;18.50;40.50;;;;;;7365848;19;19923;-49
2022/12/14 12:56:38;;;;;;;;;;;18.50;40.60;;;;;;7370612;19;19956;-51
2022/12/14 12:59:05;;;;;;;;;;;18.40;40.80;;;;;;7358280;19;19915;-52
2022/12/14 13:01:34;;;;;;;;;;;18.40;40.70;;;;;;7344282;19;20272;-49
2022/12/14 13:04:04;;;;;;;;;;;18.50;41.00;;;;;;7367767;19;20813;-53
2022/12/14 13:06:30;;;;;;;;;;;18.50;40.90;;;;;;7385592;19;19923;-48
2022/12/14 13:08:58;;;;;;;;;;;18.40;41.00;;;;;;7360105;19;19955;-54
2022/12/14 13:11:42;;;;;;;;;;;18.40;40.70;;;;;;7373516;19;19919;-51
2022/12/14 13:14:18;;;;;;;;;;;18.40;40.80;;;;;;7359055;19;19923;-52
2022/12/14 13:16:44;;;;;;;;;;;18.50;41.10;;;;;;7373682;19;19921;-52
2022/12/14 13:19:20;;;;;;;;;;;18.50;40.80;;;;;;7379248;19;20288;-50
2022/12/14 13:21:47;;;;;;;;;;;18.60;41.00;;;;;;7373247;19;19922;-55
2022/12/14 13:24:15;;;;;;;;;;;18.60;41.00;;;;;;7358961;19;19935;-54
2022/12/14 13:26:40;;;;;;;;;;;18.70;40.80;;;;;;7357354;19;19943;-57
2022/12/14 13:29:19;;;;;;;;;;;18.70;40.60;;;;;;7365848;19;19915;-56
2022/12/14 13:32:05;;;;;;;;;;;18.60;40.70;;;;;;7363892;19;21331;-54
2022/12/14 13:34:40;;;;;;;;;;;18.70;40.80;;;;;;7387189;19;19951;-50
2022/12/14 13:37:25;;;;;;;;;;;18.70;40.60;;;;;;7359482;19;19943;-51
2022/12/14 13:39:50;;;;;;;;;;;18.70;40.80;;;;;;7364817;19;19951;-55
2022/12/14 13:42:25;;;;;;;;;;;18.80;40.80;;;;;;7367972;19;19982;-54
2022/12/14 13:44:55;;;;;;;;;;;18.80;40.70;;;;;;7359141;19;20018;-55
2022/12/14 13:47:23;;;;;;;;;;;18.80;40.80;;;;;;7363550;19;20333;-54
2022/12/14 13:49:50;;;;;;;;;;;18.80;40.60;;;;;;7348748;19;19918;-53
2022/12/14 13:52:27;;;;;;;;;;;18.70;40.80;;;;;;7365790;19;19922;-49
2022/12/14 13:54:52;;;;;;;;;;;18.70;41.30;;;;;;7370927;19;19939;-53
2022/12/14 13:57:22;;;;;;;;;;;18.70;41.40;;;;;;7361645;19;19930;-50
2022/12/14 13:59:49;;;;;;;;;;;18.70;41.80;;;;;;7355601;19;19939;-50
2022/12/14 14:02:26;;;;;;;;;;;18.70;42.10;;;;;;7362513;19;19927;-49
2022/12/14 14:05:10;;;;;;;;;;;18.80;42.20;;;;;;7371173;19;20002;-49
2022/12/14 14:07:47;;;;;;;;;;;18.90;42.00;;;;;;7376139;19;19926;-53
2022/12/14 14:10:27;;;;;;;;;;;18.90;42.00;;;;;;7371119;19;20229;-51
2022/12/14 14:12:52;;;;;;;;;;;19.00;42.00;;;;;;7356653;19;19911;-53
2022/12/14 14:15:20;;;;;;;;;;;19.00;41.70;;;;;;7361861;19;19923;-58
2022/12/14 14:17:48;;;;;;;;;;;19.10;41.50;;;;;;7361637;19;19926;-54
2022/12/14 14:20:32;;;;;;;;;;;19.00;41.80;;;;;;7373577;19;20251;-55
2022/12/14 14:23:13;;;;;;;;;;;19.00;41.80;;;;;;7357119;19;20698;-53
2022/12/14 14:25:47;;;;;;;;;;;19.00;42.00;;;;;;7369374;19;19990;-55
2022/12/14 14:28:13;;;;;;;;;;;19.10;41.90;;;;;;7366350;19;21657;-57
2022/12/14 14:30:47;;;;;;;;;;;19.10;41.80;;;;;;7349035;19;19925;-58
2022/12/14 14:33:32;;;;;;;;;;;19.10;41.80;;;;;;7369973;19;21200;-48
2022/12/14 14:36:21;;;;;;;;;;;19.10;41.90;;;;;;7355022;19;19943;-58
2022/12/14 14:38:47;;;;;;;;;;;19.20;41.70;;;;;;7353407;19;19954;-53
2022/12/14 14:41:19;;;;;;;;;;;19.20;41.50;;;;;;7366839;19;21506;-54